Gdansk Airport, Poland

2:21 PM CET on February 12, 2016 (GMT +0100)
Rebiechowo | | Change Station
CLOSE
Current Station
Airport
Location: Gdansk Airport,
Elevation: 453 ft
Nearby Weather Stations

Elev 453 ft 54.38 °N, 18.47 °E | Updated 21 minutes ago

Light Rain
Light Rain
37 °F
Feels Like 31 °F
N
8
Wind Variable Wind from SW

Today
High -- | Low -- °F
--% Chance of Precip.
Yesterday
High -- | Low -- °F
Precip. -- in
Pressure 29.53 in
Visibility 2.5 miles
Clouds Mostly Cloudy 800 ft
Windchill 31 °F
Dew Point 34 °F
Humidity 87%
Rainfall 0.00 in
Snow Depth Not available.
7:14 AM 4:46 PM
Waxing Crescent, 20% visible
METAR EPGD 121300Z 22007KT 190V250 4000 -RA BKN008 03/01 Q1000
Pressure 29.53 in
Visibility 2.5 miles
Clouds Mostly Cloudy 800 ft
Windchill 31 °F
Dew Point 34 °F
Humidity 87%
Rainfall 0.00 in
Snow Depth Not available.
7:14 AM 4:46 PM
Waxing Crescent, 20% visible
METAR EPGD 121300Z 22007KT 190V250 4000 -RA BKN008 03/01 Q1000

10-Day Weather Forecast

Almanac

Astronomy

Feb. 12, 2016 Rise Set
Actual Time
Civil Twilight
Nautical Twilight
Astronomical Twilight
Moon
Length of Visible Light
Length of Day
Tomorrow will be .
, % of the Moon is Illuminated

Today's Extremes

Country Highs Country Lows

Community

WunderPhotos

Upload Photos

1,892,309 photos uploaded!

WunderBlog® & News

Nearby

Air Quality

  Air Quality AQ Index Pollutant
Not available.

Snow Depth

Station Depth Elevation

Earthquake Activity

City Distance Mag. Time & Date
Minimum magnitude displayed is 2.5.

Coastal Water Temperatures

Place Temperature

Stations

Nearby Weather Stations

Station Location Temp. Windchill Dew Point Humidity Wind Precip. Elev Updated Type